Time;durP1;ratioP1;P1;durP2;ratioP2;P2;SDS_P1;SDS_P2;PMS_P1;PMS_P2;Temp;Humidity;BMP_temperature;BMP_pressure;BME280_temperature;BME280_humidity;BME280_pressure;Samples;Min_cycle;Max_cycle;Signal;HPM_P1;HPM_P2
2023/03/23 00:01:02;;;;;;;;;0.00;0.00;;;;;;;;5101763;27;9762;-74
2023/03/23 00:03:28;;;;;;;;;0.00;0.00;;;;;;;;5113580;28;9542;-74
2023/03/23 00:05:59;;;;;;;;;0.00;0.00;;;;;;;;5112184;28;11443;-73
2023/03/23 00:08:25;;;;;;;;;1.00;1.00;;;;;;;;5113797;27;8875;-75
2023/03/23 00:10:52;;;;;;;;;0.00;0.00;;;;;;;;5113538;27;9558;-74
2023/03/23 00:13:19;;;;;;;;;0.00;0.00;;;;;;;;5113934;27;9750;-75
2023/03/23 00:15:45;;;;;;;;;1.00;0.00;;;;;;;;5113632;27;9712;-74
2023/03/23 00:18:20;;;;;;;;;0.00;0.00;;;;;;;;5112444;28;9634;-75
2023/03/23 00:20:48;;;;;;;;;2.00;1.00;;;;;;;;5113652;27;8765;-74
2023/03/23 00:23:18;;;;;;;;;0.75;0.75;;;;;;;;5113324;27;9575;-74
2023/03/23 00:25:47;;;;;;;;;0.75;0.75;;;;;;;;5113233;27;9673;-75
2023/03/23 00:28:14;;;;;;;;;1.00;1.00;;;;;;;;5113493;27;9706;-75
2023/03/23 00:30:39;;;;;;;;;0.00;0.00;;;;;;;;5112380;27;10354;-75
2023/03/23 00:33:04;;;;;;;;;2.00;0.00;;;;;;;;5094959;28;9500;-74
2023/03/23 00:35:30;;;;;;;;;0.67;0.67;;;;;;;;5111965;28;8864;-75
2023/03/23 00:37:56;;;;;;;;;0.33;0.33;;;;;;;;5112598;27;8889;-75
2023/03/23 00:40:21;;;;;;;;;1.00;0.00;;;;;;;;5113331;27;8773;-75
2023/03/23 00:42:48;;;;;;;;;3.00;0.00;;;;;;;;5113516;27;8812;-76
2023/03/23 00:45:14;;;;;;;;;0.00;0.00;;;;;;;;5112237;27;8861;-75
2023/03/23 00:47:41;;;;;;;;;2.00;1.00;;;;;;;;5113432;27;9490;-75
2023/03/23 00:50:07;;;;;;;;;0.25;0.25;;;;;;;;5113294;27;9593;-75
2023/03/23 00:52:32;;;;;;;;;1.00;1.00;;;;;;;;5113134;28;10434;-75
2023/03/23 00:54:57;;;;;;;;;2.00;0.75;;;;;;;;5113208;27;8805;-76
2023/03/23 00:57:24;;;;;;;;;1.00;1.00;;;;;;;;5113035;28;8812;-75
2023/03/23 00:59:49;;;;;;;;;1.00;1.00;;;;;;;;5113183;27;8753;-75
2023/03/23 01:02:16;;;;;;;;;1.00;1.00;;;;;;;;5112968;27;9570;-75
2023/03/23 01:04:44;;;;;;;;;0.33;0.33;;;;;;;;5112184;27;8765;-75
2023/03/23 01:07:12;;;;;;;;;1.00;1.00;;;;;;;;5111713;27;9492;-74
2023/03/23 01:09:39;;;;;;;;;2.00;1.00;;;;;;;;5112591;27;9471;-75
2023/03/23 01:12:05;;;;;;;;;1.00;0.00;;;;;;;;5112932;27;9475;-75
2023/03/23 01:14:30;;;;;;;;;4.00;1.00;;;;;;;;5112457;27;9498;-75
2023/03/23 01:16:56;;;;;;;;;1.00;1.00;;;;;;;;5112950;27;8809;-75
2023/03/23 01:19:21;;;;;;;;;2.00;2.00;;;;;;;;5112710;27;8883;-75
2023/03/23 01:21:47;;;;;;;;;1.00;1.00;;;;;;;;5112317;27;9527;-75
2023/03/23 01:24:12;;;;;;;;;1.50;1.50;;;;;;;;5112840;27;9547;-74
2023/03/23 01:26:37;;;;;;;;;1.00;1.00;;;;;;;;5113014;28;8793;-75
2023/03/23 01:29:02;;;;;;;;;1.00;1.00;;;;;;;;5113031;28;8850;-75
2023/03/23 01:31:28;;;;;;;;;2.00;1.67;;;;;;;;5113097;28;8785;-75
2023/03/23 01:33:55;;;;;;;;;0.67;0.67;;;;;;;;5112991;27;8785;-75
2023/03/23 01:36:22;;;;;;;;;1.00;1.00;;;;;;;;5113594;27;8737;-75
2023/03/23 01:38:48;;;;;;;;;2.00;2.00;;;;;;;;5113609;27;9555;-76
2023/03/23 01:41:14;;;;;;;;;1.25;1.25;;;;;;;;5113946;27;9533;-75
2023/03/23 01:44:01;;;;;;;;;1.00;1.00;;;;;;;;5133009;27;9629;-75
2023/03/23 01:46:27;;;;;;;;;1.00;1.00;;;;;;;;5134487;27;9527;-75
2023/03/23 01:48:53;;;;;;;;;2.00;1.00;;;;;;;;5134311;27;9456;-75
2023/03/23 01:51:20;;;;;;;;;1.00;1.00;;;;;;;;5132423;27;9532;-75
2023/03/23 01:53:47;;;;;;;;;1.75;1.00;;;;;;;;5130757;27;9459;-75
2023/03/23 01:56:16;;;;;;;;;1.00;1.00;;;;;;;;5112227;27;9604;-75
2023/03/23 01:58:42;;;;;;;;;1.00;1.00;;;;;;;;5112280;27;9376;-76
2023/03/23 02:01:11;;;;;;;;;1.00;1.00;;;;;;;;5112486;27;9510;-76
2023/03/23 02:03:38;;;;;;;;;1.00;1.00;;;;;;;;5112233;27;8783;-76
2023/03/23 02:06:03;;;;;;;;;0.67;0.67;;;;;;;;5110632;28;10304;-76
2023/03/23 02:08:29;;;;;;;;;0.75;0.75;;;;;;;;5112038;27;9746;-75
2023/03/23 02:10:54;;;;;;;;;1.00;1.00;;;;;;;;5110935;28;8812;-75
2023/03/23 02:13:20;;;;;;;;;3.00;1.00;;;;;;;;5111800;27;8823;-75
2023/03/23 02:15:54;;;;;;;;;0.75;0.75;;;;;;;;5112002;27;8797;-75
2023/03/23 02:18:25;;;;;;;;;2.00;1.00;;;;;;;;5111677;27;8805;-75
2023/03/23 02:20:51;;;;;;;;;1.00;1.00;;;;;;;;5112056;27;9548;-74
2023/03/23 02:23:25;;;;;;;;;2.33;1.00;;;;;;;;5110571;28;9561;-75
2023/03/23 02:26:06;;;;;;;;;2.25;2.00;;;;;;;;5111371;28;8781;-75
2023/03/23 02:28:36;;;;;;;;;2.00;1.00;;;;;;;;5111608;27;9555;-76
2023/03/23 02:31:19;;;;;;;;;2.00;2.00;;;;;;;;5111648;27;9563;-74
2023/03/23 02:33:51;;;;;;;;;1.00;1.00;;;;;;;;5111400;28;10299;-75
2023/03/23 02:36:16;;;;;;;;;1.75;1.00;;;;;;;;5111581;27;9548;-75
2023/03/23 02:38:55;;;;;;;;;1.00;1.00;;;;;;;;5111698;27;9663;-75
2023/03/23 02:41:22;;;;;;;;;2.00;1.00;;;;;;;;5111241;27;8788;-75
2023/03/23 02:43:49;;;;;;;;;1.00;1.00;;;;;;;;5091155;28;9472;-75
2023/03/23 02:46:15;;;;;;;;;1.00;1.00;;;;;;;;5091293;28;9418;-75
2023/03/23 02:48:41;;;;;;;;;0.50;0.50;;;;;;;;5090843;28;9595;-75
2023/03/23 02:51:08;;;;;;;;;0.67;0.67;;;;;;;;5104463;27;9577;-75
2023/03/23 02:53:36;;;;;;;;;1.50;0.25;;;;;;;;5111768;27;9540;-75
2023/03/23 02:56:02;;;;;;;;;2.00;1.00;;;;;;;;5113541;28;9632;-75
2023/03/23 02:58:28;;;;;;;;;1.00;1.00;;;;;;;;5113282;28;9490;-74
2023/03/23 03:00:53;;;;;;;;;3.25;1.00;;;;;;;;5114990;28;9494;-75
2023/03/23 03:03:24;;;;;;;;;1.75;0.00;;;;;;;;5115065;27;8797;-74
2023/03/23 03:05:52;;;;;;;;;1.00;1.00;;;;;;;;5114360;27;8789;-75
2023/03/23 03:08:20;;;;;;;;;4.00;1.00;;;;;;;;5115206;27;9554;-75
2023/03/23 03:11:06;;;;;;;;;1.00;1.00;;;;;;;;5113380;28;9498;-74
2023/03/23 03:13:31;;;;;;;;;1.25;1.25;;;;;;;;5114573;27;9670;-74
2023/03/23 03:16:12;;;;;;;;;0.67;0.67;;;;;;;;5114704;28;9490;-74
2023/03/23 03:18:41;;;;;;;;;1.25;1.00;;;;;;;;5114417;27;8781;-75
2023/03/23 03:21:10;;;;;;;;;1.00;1.00;;;;;;;;5114760;27;9647;-75
2023/03/23 03:23:36;;;;;;;;;1.50;1.00;;;;;;;;5114668;27;9532;-75
2023/03/23 03:26:04;;;;;;;;;1.00;1.00;;;;;;;;5114721;28;9543;-75
2023/03/23 03:28:31;;;;;;;;;1.75;1.75;;;;;;;;5114483;27;9539;-74
2023/03/23 03:31:00;;;;;;;;;0.75;0.75;;;;;;;;5114646;27;9633;-74
2023/03/23 03:33:27;;;;;;;;;0.00;0.00;;;;;;;;5114335;27;9550;-75
2023/03/23 03:35:56;;;;;;;;;1.00;1.00;;;;;;;;5114288;27;10129;-75
2023/03/23 03:38:25;;;;;;;;;1.00;1.00;;;;;;;;5114424;27;9623;-77
2023/03/23 03:40:50;;;;;;;;;2.25;1.00;;;;;;;;5114519;27;9680;-74
2023/03/23 03:43:16;;;;;;;;;1.00;1.00;;;;;;;;5100814;27;10280;-76
2023/03/23 03:45:41;;;;;;;;;1.00;1.00;;;;;;;;5092569;28;8814;-75
2023/03/23 03:48:07;;;;;;;;;1.75;1.00;;;;;;;;5093736;28;8788;-76
2023/03/23 03:50:32;;;;;;;;;0.75;0.75;;;;;;;;5094098;28;8788;-75
2023/03/23 03:52:57;;;;;;;;;1.50;1.00;;;;;;;;5093583;28;9538;-74
2023/03/23 03:55:23;;;;;;;;;0.75;0.00;;;;;;;;5109305;27;8789;-75
2023/03/23 03:57:48;;;;;;;;;1.00;1.00;;;;;;;;5114182;27;8827;-75
2023/03/23 04:00:14;;;;;;;;;3.00;1.00;;;;;;;;5114097;28;8857;-75
2023/03/23 04:02:43;;;;;;;;;0.75;0.75;;;;;;;;5114017;27;8772;-74
2023/03/23 04:05:09;;;;;;;;;1.25;1.25;;;;;;;;5112975;27;9478;-75
2023/03/23 04:07:37;;;;;;;;;1.00;1.00;;;;;;;;5113598;28;9604;-75
2023/03/23 04:10:04;;;;;;;;;0.00;0.00;;;;;;;;5113736;27;9744;-75
2023/03/23 04:12:29;;;;;;;;;1.00;0.00;;;;;;;;5113809;27;9438;-75
2023/03/23 04:14:54;;;;;;;;;0.75;0.75;;;;;;;;5113819;28;9554;-75
2023/03/23 04:17:20;;;;;;;;;1.00;1.00;;;;;;;;5113731;28;8824;-75
2023/03/23 04:19:45;;;;;;;;;2.00;1.00;;;;;;;;5113794;27;9590;-75
2023/03/23 04:22:10;;;;;;;;;1.00;1.00;;;;;;;;5113324;27;8812;-75
2023/03/23 04:24:36;;;;;;;;;1.00;1.00;;;;;;;;5113675;27;8807;-75
2023/03/23 04:27:01;;;;;;;;;1.00;1.00;;;;;;;;5113910;28;8810;-75
2023/03/23 04:29:27;;;;;;;;;1.00;1.00;;;;;;;;5112485;28;8793;-75
2023/03/23 04:31:52;;;;;;;;;0.33;0.00;;;;;;;;5113675;27;8792;-74
2023/03/23 04:34:17;;;;;;;;;1.00;1.00;;;;;;;;5113363;27;8793;-73
2023/03/23 04:36:43;;;;;;;;;1.00;1.00;;;;;;;;5113131;27;8864;-73
2023/03/23 04:39:09;;;;;;;;;2.00;1.00;;;;;;;;5113854;27;8757;-73
2023/03/23 04:41:39;;;;;;;;;1.00;1.00;;;;;;;;5115146;27;8773;-73
2023/03/23 04:44:05;;;;;;;;;0.00;0.00;;;;;;;;5134032;27;9372;-74
2023/03/23 04:46:30;;;;;;;;;1.75;1.00;;;;;;;;5116762;27;9655;-77
2023/03/23 04:48:58;;;;;;;;;1.00;1.00;;;;;;;;5093097;28;8775;-74
2023/03/23 04:51:24;;;;;;;;;1.75;1.00;;;;;;;;5092927;28;8767;-77
2023/03/23 04:53:50;;;;;;;;;1.00;1.00;;;;;;;;5092846;28;9602;-76
2023/03/23 04:56:15;;;;;;;;;1.50;1.50;;;;;;;;5093006;28;8822;-76
2023/03/23 04:58:40;;;;;;;;;1.00;1.00;;;;;;;;5103079;27;8808;-76
2023/03/23 05:01:06;;;;;;;;;0.00;0.00;;;;;;;;5113518;27;8880;-75
2023/03/23 05:03:31;;;;;;;;;1.00;1.00;;;;;;;;5113692;27;8781;-76
2023/03/23 05:05:56;;;;;;;;;1.00;1.00;;;;;;;;5113363;28;8864;-76
2023/03/23 05:08:22;;;;;;;;;0.50;0.50;;;;;;;;5113539;27;8903;-76
2023/03/23 05:10:53;;;;;;;;;0.00;0.00;;;;;;;;5113721;27;8801;-76
2023/03/23 05:13:18;;;;;;;;;2.00;1.00;;;;;;;;5113997;28;9461;-76
2023/03/23 05:15:43;;;;;;;;;0.00;0.00;;;;;;;;5114550;28;9569;-75
2023/03/23 05:18:09;;;;;;;;;1.50;1.25;;;;;;;;5113983;28;8877;-76
2023/03/23 05:20:35;;;;;;;;;1.00;1.00;;;;;;;;5113875;27;8770;-76
2023/03/23 05:23:00;;;;;;;;;1.00;1.00;;;;;;;;5113635;27;9548;-77
2023/03/23 05:25:26;;;;;;;;;0.67;0.67;;;;;;;;5112994;28;8828;-77
2023/03/23 05:27:52;;;;;;;;;0.00;0.00;;;;;;;;5112987;27;8820;-76
2023/03/23 05:30:18;;;;;;;;;1.67;1.00;;;;;;;;5112740;27;8791;-76
2023/03/23 05:32:44;;;;;;;;;0.00;0.00;;;;;;;;5112876;27;9370;-76
2023/03/23 05:35:11;;;;;;;;;0.00;0.00;;;;;;;;5111112;28;8841;-76
2023/03/23 05:37:36;;;;;;;;;0.75;0.75;;;;;;;;5112651;27;9683;-76
2023/03/23 05:40:05;;;;;;;;;0.00;0.00;;;;;;;;5112832;27;9575;-77
2023/03/23 05:42:32;;;;;;;;;0.75;0.75;;;;;;;;5112478;27;8866;-76
2023/03/23 05:44:58;;;;;;;;;0.50;0.50;;;;;;;;5112352;27;9646;-76
2023/03/23 05:47:23;;;;;;;;;1.00;1.00;;;;;;;;5094090;28;9640;-76
2023/03/23 05:49:49;;;;;;;;;1.50;0.25;;;;;;;;5112117;27;8769;-76
2023/03/23 05:52:14;;;;;;;;;1.00;1.00;;;;;;;;5112657;28;8796;-75
2023/03/23 05:54:41;;;;;;;;;0.50;0.50;;;;;;;;5112329;27;9574;-76
2023/03/23 05:57:06;;;;;;;;;1.00;1.00;;;;;;;;5112260;27;8773;-77
2023/03/23 05:59:31;;;;;;;;;1.00;1.00;;;;;;;;5112181;28;9647;-76
2023/03/23 06:01:57;;;;;;;;;1.00;1.00;;;;;;;;5111181;28;8801;-77
2023/03/23 06:04:24;;;;;;;;;1.00;1.00;;;;;;;;5111624;27;8834;-76
2023/03/23 06:06:50;;;;;;;;;1.00;1.00;;;;;;;;5111926;27;8765;-76
2023/03/23 06:09:16;;;;;;;;;0.00;0.00;;;;;;;;5112144;27;9651;-76
2023/03/23 06:11:42;;;;;;;;;1.75;1.75;;;;;;;;5112321;28;8773;-77
2023/03/23 06:14:07;;;;;;;;;0.00;0.00;;;;;;;;5112025;28;9628;-76
2023/03/23 06:16:32;;;;;;;;;0.00;0.00;;;;;;;;5112126;27;8808;-75
2023/03/23 06:19:00;;;;;;;;;0.00;0.00;;;;;;;;5111881;28;8781;-76
2023/03/23 06:21:25;;;;;;;;;1.00;1.00;;;;;;;;5111915;27;8957;-76
2023/03/23 06:23:50;;;;;;;;;1.00;0.00;;;;;;;;5112365;28;9777;-76
2023/03/23 06:26:18;;;;;;;;;0.50;0.50;;;;;;;;5111592;28;9536;-76
2023/03/23 06:28:43;;;;;;;;;0.00;0.00;;;;;;;;5107312;27;8826;-76
2023/03/23 06:31:09;;;;;;;;;1.50;1.00;;;;;;;;5090098;28;9710;-78
2023/03/23 06:33:35;;;;;;;;;2.00;2.00;;;;;;;;5089976;28;8932;-73
2023/03/23 06:36:01;;;;;;;;;0.00;0.00;;;;;;;;5091045;28;8783;-72
2023/03/23 06:38:26;;;;;;;;;1.00;1.00;;;;;;;;5098428;28;9802;-73
2023/03/23 06:40:52;;;;;;;;;0.00;0.00;;;;;;;;5097388;28;8811;-73
2023/03/23 06:43:17;;;;;;;;;0.00;0.00;;;;;;;;5104386;27;8785;-75
2023/03/23 06:45:42;;;;;;;;;2.00;0.75;;;;;;;;5111499;28;9552;-76
2023/03/23 06:48:08;;;;;;;;;0.50;0.50;;;;;;;;5094680;28;8819;-74
2023/03/23 06:50:33;;;;;;;;;0.50;0.50;;;;;;;;5090962;28;8775;-75
2023/03/23 06:52:58;;;;;;;;;0.25;0.25;;;;;;;;5091044;28;8868;-74
2023/03/23 06:55:23;;;;;;;;;2.00;0.50;;;;;;;;5106541;28;8793;-73
2023/03/23 06:57:49;;;;;;;;;1.75;1.00;;;;;;;;5110447;28;8797;-74
2023/03/23 07:00:15;;;;;;;;;1.00;1.00;;;;;;;;5111310;28;8781;-75
2023/03/23 07:02:40;;;;;;;;;2.00;1.00;;;;;;;;5110796;27;8781;-75
2023/03/23 07:05:07;;;;;;;;;3.75;1.75;;;;;;;;5110798;28;8777;-74
2023/03/23 07:07:32;;;;;;;;;2.50;1.50;;;;;;;;5111107;27;8811;-74
2023/03/23 07:09:57;;;;;;;;;2.00;2.00;;;;;;;;5110662;28;9614;-76
2023/03/23 07:12:23;;;;;;;;;3.00;2.00;;;;;;;;5111024;27;8807;-75
2023/03/23 07:14:48;;;;;;;;;1.25;1.25;;;;;;;;5111159;27;8784;-76
2023/03/23 07:17:14;;;;;;;;;2.00;2.00;;;;;;;;5110974;28;8898;-76
2023/03/23 07:19:40;;;;;;;;;3.00;2.00;;;;;;;;5110893;27;8766;-76
2023/03/23 07:22:05;;;;;;;;;1.50;1.50;;;;;;;;5111129;27;8923;-76
2023/03/23 07:24:31;;;;;;;;;1.25;0.75;;;;;;;;5110848;27;8780;-76
2023/03/23 07:26:56;;;;;;;;;1.00;0.00;;;;;;;;5111336;28;8808;-76
2023/03/23 07:29:22;;;;;;;;;3.00;2.00;;;;;;;;5111118;27;8777;-76
2023/03/23 07:31:47;;;;;;;;;2.50;2.00;;;;;;;;5110364;28;8797;-76
2023/03/23 07:34:13;;;;;;;;;4.00;2.75;;;;;;;;5110869;27;9539;-76
2023/03/23 07:36:38;;;;;;;;;4.00;3.00;;;;;;;;5110505;27;8793;-76
2023/03/23 07:39:05;;;;;;;;;2.00;2.00;;;;;;;;5111330;28;8784;-76
2023/03/23 07:41:30;;;;;;;;;2.00;2.00;;;;;;;;5112243;27;9660;-76
2023/03/23 07:43:56;;;;;;;;;1.75;1.75;;;;;;;;5114224;27;9621;-76
2023/03/23 07:46:21;;;;;;;;;1.00;1.00;;;;;;;;5114202;28;8796;-76
2023/03/23 07:48:46;;;;;;;;;1.00;1.00;;;;;;;;5112820;28;8785;-75
2023/03/23 07:51:12;;;;;;;;;1.25;1.25;;;;;;;;5112693;28;8805;-76
2023/03/23 07:53:37;;;;;;;;;1.25;1.25;;;;;;;;5114188;27;8769;-77
2023/03/23 07:56:03;;;;;;;;;2.00;2.00;;;;;;;;5114097;28;8861;-75
2023/03/23 07:58:28;;;;;;;;;2.00;2.00;;;;;;;;5113842;27;8800;-76
2023/03/23 08:00:56;;;;;;;;;1.25;1.25;;;;;;;;5113974;27;10172;-74
2023/03/23 08:03:21;;;;;;;;;2.00;2.00;;;;;;;;5113775;27;8795;-74
2023/03/23 08:05:46;;;;;;;;;2.00;2.00;;;;;;;;5112395;28;9637;-74
2023/03/23 08:08:12;;;;;;;;;1.50;1.50;;;;;;;;5112525;28;8873;-76
2023/03/23 08:10:37;;;;;;;;;2.25;2.25;;;;;;;;5113865;27;8780;-76
2023/03/23 08:13:02;;;;;;;;;3.00;2.00;;;;;;;;5113744;27;8785;-76
2023/03/23 08:15:28;;;;;;;;;2.00;2.00;;;;;;;;5113152;27;8889;-76
2023/03/23 08:17:54;;;;;;;;;2.00;1.00;;;;;;;;5113592;27;8788;-76
2023/03/23 08:20:20;;;;;;;;;3.00;2.00;;;;;;;;5113656;27;9548;-76
2023/03/23 08:22:49;;;;;;;;;4.00;2.25;;;;;;;;5113347;27;10562;-76
2023/03/23 08:25:14;;;;;;;;;3.00;2.00;;;;;;;;5113689;27;8781;-76
2023/03/23 08:27:43;;;;;;;;;2.25;1.00;;;;;;;;5113537;27;9986;-75
2023/03/23 08:30:09;;;;;;;;;2.00;1.00;;;;;;;;5113704;27;8773;-76
2023/03/23 08:32:34;;;;;;;;;1.75;1.00;;;;;;;;5113682;27;9532;-76
2023/03/23 08:35:00;;;;;;;;;2.00;1.25;;;;;;;;5111916;28;9701;-76
2023/03/23 08:37:25;;;;;;;;;1.33;1.33;;;;;;;;5114245;28;8824;-75
2023/03/23 08:39:51;;;;;;;;;4.00;2.50;;;;;;;;5114438;28;8919;-75
2023/03/23 08:42:18;;;;;;;;;1.50;1.50;;;;;;;;5115668;27;9652;-75
2023/03/23 08:44:43;;;;;;;;;1.75;0.00;;;;;;;;5114830;27;9687;-76
2023/03/23 08:47:09;;;;;;;;;2.00;2.00;;;;;;;;5113668;27;10306;-76
2023/03/23 08:49:34;;;;;;;;;3.75;3.75;;;;;;;;5113322;27;8858;-76
2023/03/23 08:52:00;;;;;;;;;2.00;1.50;;;;;;;;5112366;27;8785;-76
2023/03/23 08:54:25;;;;;;;;;2.00;2.00;;;;;;;;5113169;27;9363;-76
2023/03/23 08:56:50;;;;;;;;;2.00;2.00;;;;;;;;5112714;28;8792;-76
2023/03/23 08:59:16;;;;;;;;;2.50;1.00;;;;;;;;5112905;27;8796;-76
2023/03/23 09:01:41;;;;;;;;;2.00;2.00;;;;;;;;5113061;28;8788;-76
2023/03/23 09:04:08;;;;;;;;;1.75;1.50;;;;;;;;5113285;27;8793;-76
2023/03/23 09:06:34;;;;;;;;;2.00;1.00;;;;;;;;5113018;27;8761;-76
2023/03/23 09:09:00;;;;;;;;;6.50;2.50;;;;;;;;5113023;27;10115;-75
2023/03/23 09:11:25;;;;;;;;;1.00;0.00;;;;;;;;5112233;28;11363;-75
2023/03/23 09:13:51;;;;;;;;;2.50;2.25;;;;;;;;5111225;28;9519;-75
2023/03/23 09:16:16;;;;;;;;;1.00;1.00;;;;;;;;5112382;28;8891;-75
2023/03/23 09:18:41;;;;;;;;;2.50;1.75;;;;;;;;5112170;28;8824;-75
2023/03/23 09:21:06;;;;;;;;;1.00;1.00;;;;;;;;5112344;28;8765;-76
2023/03/23 09:23:32;;;;;;;;;2.00;2.00;;;;;;;;5112272;27;8897;-75
2023/03/23 09:25:59;;;;;;;;;1.50;1.50;;;;;;;;5112168;27;8788;-76
2023/03/23 09:28:24;;;;;;;;;1.00;1.00;;;;;;;;5111299;28;8793;-76
2023/03/23 09:30:51;;;;;;;;;1.25;1.25;;;;;;;;5111418;28;10213;-76
2023/03/23 09:33:16;;;;;;;;;3.33;3.33;;;;;;;;5112814;27;8812;-76
2023/03/23 09:35:42;;;;;;;;;2.67;2.00;;;;;;;;5111115;27;10233;-76
2023/03/23 09:38:09;;;;;;;;;1.00;1.00;;;;;;;;5112579;27;8793;-75
2023/03/23 09:40:48;;;;;;;;;3.00;2.00;;;;;;;;5112826;27;8783;-76
2023/03/23 09:43:20;;;;;;;;;3.50;3.50;;;;;;;;5112075;27;9556;-76
2023/03/23 09:45:48;;;;;;;;;2.67;1.00;;;;;;;;5110962;27;9616;-76
2023/03/23 09:48:32;;;;;;;;;4.75;3.00;;;;;;;;5112386;28;9376;-75
2023/03/23 09:51:22;;;;;;;;;1.67;1.00;;;;;;;;5112416;28;9506;-76
2023/03/23 09:53:51;;;;;;;;;3.67;3.00;;;;;;;;5112526;27;9454;-76
2023/03/23 09:56:17;;;;;;;;;2.00;1.00;;;;;;;;5112143;27;9406;-76
2023/03/23 09:58:47;;;;;;;;;1.50;1.50;;;;;;;;5103071;27;9426;-75
2023/03/23 10:01:16;;;;;;;;;2.00;2.00;;;;;;;;5112345;27;8757;-76
2023/03/23 10:03:46;;;;;;;;;1.00;1.00;;;;;;;;5112563;27;10309;-77
2023/03/23 10:06:13;;;;;;;;;1.00;1.00;;;;;;;;5112806;27;9489;-76
2023/03/23 10:08:44;;;;;;;;;2.33;1.33;;;;;;;;5112202;27;9402;-76
2023/03/23 10:11:12;;;;;;;;;1.33;1.00;;;;;;;;5111732;27;9480;-76
2023/03/23 10:13:40;;;;;;;;;5.33;1.00;;;;;;;;5112208;28;9494;-76
2023/03/23 10:16:09;;;;;;;;;2.33;1.67;;;;;;;;5111752;28;9322;-76
2023/03/23 10:18:47;;;;;;;;;2.00;2.00;;;;;;;;5111656;27;9402;-76
2023/03/23 10:21:16;;;;;;;;;0.67;0.67;;;;;;;;5111851;27;9379;-76
2023/03/23 10:23:51;;;;;;;;;1.67;1.67;;;;;;;;5111915;27;9321;-76
2023/03/23 10:26:16;;;;;;;;;2.00;2.00;;;;;;;;5111660;27;9369;-75
2023/03/23 10:28:43;;;;;;;;;2.00;2.00;;;;;;;;5110606;28;9621;-77
2023/03/23 10:31:12;;;;;;;;;2.67;1.67;;;;;;;;5111566;27;8745;-76
2023/03/23 10:33:37;;;;;;;;;2.33;1.00;;;;;;;;5111860;27;9507;-75
2023/03/23 10:36:03;;;;;;;;;1.67;1.67;;;;;;;;5111621;28;9540;-76
2023/03/23 10:38:45;;;;;;;;;1.67;1.67;;;;;;;;5111416;27;8800;-76
2023/03/23 10:41:11;;;;;;;;;2.00;1.50;;;;;;;;5111449;27;8753;-76
2023/03/23 10:43:36;;;;;;;;;3.50;2.25;;;;;;;;5111427;27;9386;-76
2023/03/23 10:46:05;;;;;;;;;0.67;0.67;;;;;;;;5111327;27;9571;-76
2023/03/23 10:48:33;;;;;;;;;5.33;2.00;;;;;;;;5111348;27;8903;-76
2023/03/23 10:51:01;;;;;;;;;2.33;1.00;;;;;;;;5111345;27;9537;-76
2023/03/23 10:53:31;;;;;;;;;1.00;1.00;;;;;;;;5111541;27;9407;-76
2023/03/23 10:55:58;;;;;;;;;1.67;1.67;;;;;;;;5111238;27;9464;-76
2023/03/23 10:58:31;;;;;;;;;0.67;0.67;;;;;;;;5111569;27;9379;-76
2023/03/23 11:00:57;;;;;;;;;2.75;2.75;;;;;;;;5111508;27;9386;-76
2023/03/23 11:03:26;;;;;;;;;1.67;1.00;;;;;;;;5111392;27;9599;-76
2023/03/23 11:06:00;;;;;;;;;0.67;0.00;;;;;;;;5111159;27;9547;-76
2023/03/23 11:08:29;;;;;;;;;1.00;1.00;;;;;;;;5111185;27;9394;-76
2023/03/23 11:10:55;;;;;;;;;4.75;2.00;;;;;;;;5111449;27;9390;-76
2023/03/23 11:13:28;;;;;;;;;2.00;0.33;;;;;;;;5111130;27;9459;-76
2023/03/23 11:15:53;;;;;;;;;0.50;0.50;;;;;;;;5112008;27;9345;-76
2023/03/23 11:18:23;;;;;;;;;1.00;1.00;;;;;;;;5098723;28;9587;-76
2023/03/23 11:20:56;;;;;;;;;1.00;1.00;;;;;;;;5093107;28;8759;-76
2023/03/23 11:23:21;;;;;;;;;3.25;2.50;;;;;;;;5094303;28;9352;-76
2023/03/23 11:25:55;;;;;;;;;3.00;1.75;;;;;;;;5096283;27;10262;-75
2023/03/23 11:28:20;;;;;;;;;3.00;2.00;;;;;;;;5114882;27;8781;-75
2023/03/23 11:30:46;;;;;;;;;2.33;2.33;;;;;;;;5114723;27;9454;-76
2023/03/23 11:33:15;;;;;;;;;1.00;1.00;;;;;;;;5114677;27;8793;-76
2023/03/23 11:35:43;;;;;;;;;0.67;0.67;;;;;;;;5114732;27;8793;-76
2023/03/23 11:38:15;;;;;;;;;4.67;1.67;;;;;;;;5113989;27;9406;-76
2023/03/23 11:40:44;;;;;;;;;2.00;2.00;;;;;;;;5113292;28;9625;-76
2023/03/23 11:43:13;;;;;;;;;3.00;2.00;;;;;;;;5114287;27;9489;-74
2023/03/23 11:45:42;;;;;;;;;2.00;2.00;;;;;;;;5114802;27;9524;-76
2023/03/23 11:48:10;;;;;;;;;2.33;2.33;;;;;;;;5115015;27;9479;-74
2023/03/23 11:50:56;;;;;;;;;3.00;1.00;;;;;;;;5114861;27;9379;-75
2023/03/23 11:53:21;;;;;;;;;2.67;1.00;;;;;;;;5113632;28;9560;-75
2023/03/23 11:55:50;;;;;;;;;1.00;1.00;;;;;;;;5115059;28;9576;-76
2023/03/23 11:58:17;;;;;;;;;4.00;2.33;;;;;;;;5114283;27;8817;-76
2023/03/23 12:00:49;;;;;;;;;1.67;1.00;;;;;;;;5106384;27;9420;-76
2023/03/23 12:03:46;;;;;;;;;2.67;2.67;;;;;;;;5102759;27;9397;-75
2023/03/23 12:06:13;;;;;;;;;1.00;1.00;;;;;;;;5050711;28;9488;-76
2023/03/23 12:08:45;;;;;;;;;2.00;2.00;;;;;;;;5051343;28;9558;-75
2023/03/23 12:11:16;;;;;;;;;0.33;0.33;;;;;;;;5052362;28;9398;-75
2023/03/23 12:14:03;;;;;;;;;2.00;1.00;;;;;;;;5052631;28;9458;-76
2023/03/23 12:16:34;;;;;;;;;1.00;1.00;;;;;;;;5053311;28;9604;-76
2023/03/23 12:19:13;;;;;;;;;1.00;1.00;;;;;;;;5052694;28;9497;-76
2023/03/23 12:21:52;;;;;;;;;1.00;1.00;;;;;;;;5050607;28;9394;-75
2023/03/23 12:24:33;;;;;;;;;2.33;1.67;;;;;;;;5051010;28;9339;-76
2023/03/23 12:27:05;;;;;;;;;6.50;4.50;;;;;;;;5049282;28;9396;-76
2023/03/23 12:29:49;;;;;;;;;2.50;1.00;;;;;;;;5050692;28;10281;-76
2023/03/23 12:32:23;;;;;;;;;2.33;1.67;;;;;;;;5050830;28;10216;-75
2023/03/23 12:35:01;;;;;;;;;0.00;0.00;;;;;;;;5050069;28;10185;-74
2023/03/23 12:37:41;;;;;;;;;4.00;1.75;;;;;;;;5033876;28;9313;-75
2023/03/23 12:40:23;;;;;;;;;1.33;1.33;;;;;;;;5050606;28;9448;-76
2023/03/23 12:42:58;;;;;;;;;2.67;2.33;;;;;;;;5100853;27;9489;-76
2023/03/23 12:45:23;;;;;;;;;4.33;2.00;;;;;;;;5113088;27;10320;-75
2023/03/23 12:47:56;;;;;;;;;3.00;3.00;;;;;;;;5113042;27;9416;-76
2023/03/23 12:50:28;;;;;;;;;1.67;1.67;;;;;;;;5113256;27;9563;-76
2023/03/23 12:52:53;;;;;;;;;4.00;2.00;;;;;;;;5113363;27;9470;-76
2023/03/23 12:55:34;;;;;;;;;4.67;1.00;;;;;;;;5113040;28;9489;-76
2023/03/23 12:58:08;;;;;;;;;2.00;2.00;;;;;;;;5111608;27;8831;-76
2023/03/23 13:00:38;;;;;;;;;3.00;2.00;;;;;;;;5111780;28;9471;-76
2023/03/23 13:03:03;;;;;;;;;4.67;2.00;;;;;;;;5113336;27;9550;-76
2023/03/23 13:05:34;;;;;;;;;4.50;2.25;;;;;;;;5112912;28;9314;-76
2023/03/23 13:08:04;;;;;;;;;2.33;1.00;;;;;;;;5112492;27;9009;-76
2023/03/23 13:10:33;;;;;;;;;3.00;1.67;;;;;;;;5112599;27;9390;-76
2023/03/23 13:12:58;;;;;;;;;3.33;2.67;;;;;;;;5112738;27;9352;-76
2023/03/23 13:15:29;;;;;;;;;2.75;2.00;;;;;;;;5113073;27;9461;-76
2023/03/23 13:18:02;;;;;;;;;3.33;2.00;;;;;;;;5112973;27;8784;-75
2023/03/23 13:20:29;;;;;;;;;2.00;2.00;;;;;;;;5111284;28;9383;-76
2023/03/23 13:23:06;;;;;;;;;2.50;2.25;;;;;;;;5112386;27;9462;-76
2023/03/23 13:25:34;;;;;;;;;1.00;1.00;;;;;;;;5112842;27;9490;-76
2023/03/23 13:28:00;;;;;;;;;0.00;0.00;;;;;;;;5112904;28;9481;-75
2023/03/23 13:30:28;;;;;;;;;3.00;2.00;;;;;;;;5112037;27;9397;-75
2023/03/23 13:33:01;;;;;;;;;1.00;1.00;;;;;;;;5110673;28;9417;-74
2023/03/23 13:35:33;;;;;;;;;2.00;0.33;;;;;;;;5112804;27;9398;-75
2023/03/23 13:37:58;;;;;;;;;3.67;2.00;;;;;;;;5111458;27;9580;-76
2023/03/23 13:40:27;;;;;;;;;3.33;2.00;;;;;;;;5112990;27;9411;-76
2023/03/23 13:42:53;;;;;;;;;1.00;1.00;;;;;;;;5111438;27;9431;-75
2023/03/23 13:45:22;;;;;;;;;2.50;2.00;;;;;;;;5112643;27;9533;-76
2023/03/23 13:47:48;;;;;;;;;4.67;2.00;;;;;;;;5112421;27;9441;-76
2023/03/23 13:50:17;;;;;;;;;2.33;0.33;;;;;;;;5112226;27;9490;-75
2023/03/23 13:52:45;;;;;;;;;1.00;1.00;;;;;;;;5112525;27;9298;-75
2023/03/23 13:55:31;;;;;;;;;4.67;2.67;;;;;;;;5112135;28;9379;-75
2023/03/23 13:58:02;;;;;;;;;2.00;2.00;;;;;;;;5111942;27;9409;-75
2023/03/23 14:00:30;;;;;;;;;2.00;2.00;;;;;;;;5112411;28;9493;-76
2023/03/23 14:03:10;;;;;;;;;3.67;1.00;;;;;;;;5112062;28;10188;-76
2023/03/23 14:05:37;;;;;;;;;6.50;3.75;;;;;;;;5111958;28;9400;-75
2023/03/23 14:08:08;;;;;;;;;3.00;2.00;;;;;;;;5112156;27;9478;-76
2023/03/23 14:10:35;;;;;;;;;1.33;1.33;;;;;;;;5112148;28;9527;-75
2023/03/23 14:13:01;;;;;;;;;3.00;2.00;;;;;;;;5112370;27;9320;-75
2023/03/23 14:15:31;;;;;;;;;3.33;1.00;;;;;;;;5111950;27;10283;-76
2023/03/23 14:17:57;;;;;;;;;2.33;1.33;;;;;;;;5110205;28;10414;-76
2023/03/23 14:20:33;;;;;;;;;2.00;2.00;;;;;;;;5112258;27;9605;-75
2023/03/23 14:22:59;;;;;;;;;2.00;2.00;;;;;;;;5111876;27;8773;-76
2023/03/23 14:25:26;;;;;;;;;2.00;2.00;;;;;;;;5111344;27;9494;-76
2023/03/23 14:27:52;;;;;;;;;5.00;1.25;;;;;;;;5111853;27;9595;-76
2023/03/23 14:30:19;;;;;;;;;3.00;1.33;;;;;;;;5111751;27;9666;-74
2023/03/23 14:32:45;;;;;;;;;2.50;2.50;;;;;;;;5111294;27;9522;-75
2023/03/23 14:35:23;;;;;;;;;3.00;2.00;;;;;;;;5111670;27;10252;-75
2023/03/23 14:37:48;;;;;;;;;1.67;1.67;;;;;;;;5111417;28;9635;-75
2023/03/23 14:40:16;;;;;;;;;2.00;1.00;;;;;;;;5111821;27;9429;-75
2023/03/23 14:42:41;;;;;;;;;2.67;1.00;;;;;;;;5111566;27;8773;-75
2023/03/23 14:45:07;;;;;;;;;2.67;2.00;;;;;;;;5111438;27;9583;-74
2023/03/23 14:47:34;;;;;;;;;2.67;1.00;;;;;;;;5111626;27;8800;-76
2023/03/23 14:50:01;;;;;;;;;3.25;3.25;;;;;;;;5110704;27;8788;-74
2023/03/23 14:52:28;;;;;;;;;3.25;1.25;;;;;;;;5111426;27;9382;-75
2023/03/23 14:54:53;;;;;;;;;4.00;2.00;;;;;;;;5110011;28;9523;-74
2023/03/23 14:57:28;;;;;;;;;0.67;0.67;;;;;;;;5111440;28;9627;-74
2023/03/23 14:59:54;;;;;;;;;3.33;2.00;;;;;;;;5111178;27;8789;-74